sensor_id;sensor_type;location;lat;lon;timestamp;temperature;humidity
43183;DHT22;28802;38.578;-0.066;2023-05-28T00:00:11;19.50;99.90
43183;DHT22;28802;38.578;-0.066;2023-05-28T00:02:44;19.50;99.90
43183;DHT22;28802;38.578;-0.066;2023-05-28T00:05:11;19.60;99.90
43183;DHT22;28802;38.578;-0.066;2023-05-28T00:07:37;19.50;99.90
43183;DHT22;28802;38.578;-0.066;2023-05-28T00:10:05;19.50;99.90
43183;DHT22;28802;38.578;-0.066;2023-05-28T00:12:31;19.30;99.90
43183;DHT22;28802;38.578;-0.066;2023-05-28T00:14:57;19.30;99.90
43183;DHT22;28802;38.578;-0.066;2023-05-28T00:17:23;19.30;99.90
43183;DHT22;28802;38.578;-0.066;2023-05-28T00:19:48;19.30;99.90
43183;DHT22;28802;38.578;-0.066;2023-05-28T00:22:14;19.20;99.90
43183;DHT22;28802;38.578;-0.066;2023-05-28T00:24:40;19.10;99.90
43183;DHT22;28802;38.578;-0.066;2023-05-28T00:27:06;19.10;99.90
43183;DHT22;28802;38.578;-0.066;2023-05-28T00:29:33;19.10;99.90
43183;DHT22;28802;38.578;-0.066;2023-05-28T00:31:59;19.00;99.90
43183;DHT22;28802;38.578;-0.066;2023-05-28T00:34:25;18.90;99.90
43183;DHT22;28802;38.578;-0.066;2023-05-28T00:36:51;18.90;99.90
43183;DHT22;28802;38.578;-0.066;2023-05-28T00:39:18;18.80;99.90
43183;DHT22;28802;38.578;-0.066;2023-05-28T00:41:44;19.00;99.90
43183;DHT22;28802;38.578;-0.066;2023-05-28T00:44:10;19.00;99.90
43183;DHT22;28802;38.578;-0.066;2023-05-28T00:46:40;19.00;99.90
43183;DHT22;28802;38.578;-0.066;2023-05-28T00:49:07;18.90;99.90
43183;DHT22;28802;38.578;-0.066;2023-05-28T00:51:35;18.90;99.90
43183;DHT22;28802;38.578;-0.066;2023-05-28T00:54:03;18.90;99.90
43183;DHT22;28802;38.578;-0.066;2023-05-28T00:56:29;18.80;99.90
43183;DHT22;28802;38.578;-0.066;2023-05-28T00:58:58;18.70;99.90
43183;DHT22;28802;38.578;-0.066;2023-05-28T01:01:26;18.60;99.90
43183;DHT22;28802;38.578;-0.066;2023-05-28T01:03:53;18.60;99.90
43183;DHT22;28802;38.578;-0.066;2023-05-28T01:06:20;18.50;99.90
43183;DHT22;28802;38.578;-0.066;2023-05-28T01:08:50;18.60;99.90
43183;DHT22;28802;38.578;-0.066;2023-05-28T01:11:20;18.50;99.90
43183;DHT22;28802;38.578;-0.066;2023-05-28T01:13:47;18.20;99.90
43183;DHT22;28802;38.578;-0.066;2023-05-28T01:16:16;18.10;99.90
43183;DHT22;28802;38.578;-0.066;2023-05-28T01:18:42;18.10;99.90
43183;DHT22;28802;38.578;-0.066;2023-05-28T01:21:10;18.10;99.90
43183;DHT22;28802;38.578;-0.066;2023-05-28T01:26:11;18.20;99.90
43183;DHT22;28802;38.578;-0.066;2023-05-28T01:28:38;18.20;99.90
43183;DHT22;28802;38.578;-0.066;2023-05-28T01:31:11;18.20;99.90
43183;DHT22;28802;38.578;-0.066;2023-05-28T01:33:38;18.20;99.90
43183;DHT22;28802;38.578;-0.066;2023-05-28T01:36:08;18.30;99.90
43183;DHT22;28802;38.578;-0.066;2023-05-28T01:38:37;18.40;99.90
43183;DHT22;28802;38.578;-0.066;2023-05-28T01:41:07;18.30;99.90
43183;DHT22;28802;38.578;-0.066;2023-05-28T01:43:33;18.30;99.90
43183;DHT22;28802;38.578;-0.066;2023-05-28T01:46:00;18.40;99.90
43183;DHT22;28802;38.578;-0.066;2023-05-28T01:48:27;18.60;99.90
43183;DHT22;28802;38.578;-0.066;2023-05-28T01:50:54;18.50;99.90
43183;DHT22;28802;38.578;-0.066;2023-05-28T01:53:20;18.40;99.90
43183;DHT22;28802;38.578;-0.066;2023-05-28T01:55:46;18.50;99.90
43183;DHT22;28802;38.578;-0.066;2023-05-28T01:58:12;18.60;99.90
43183;DHT22;28802;38.578;-0.066;2023-05-28T02:00:43;18.70;99.90
43183;DHT22;28802;38.578;-0.066;2023-05-28T02:03:12;18.70;99.90
43183;DHT22;28802;38.578;-0.066;2023-05-28T02:05:38;18.70;99.90
43183;DHT22;28802;38.578;-0.066;2023-05-28T02:08:04;18.80;99.90
43183;DHT22;28802;38.578;-0.066;2023-05-28T02:10:30;18.90;99.90
43183;DHT22;28802;38.578;-0.066;2023-05-28T02:12:56;18.90;99.90
43183;DHT22;28802;38.578;-0.066;2023-05-28T02:15:21;19.00;99.90
43183;DHT22;28802;38.578;-0.066;2023-05-28T02:17:48;19.10;99.90
43183;DHT22;28802;38.578;-0.066;2023-05-28T02:20:15;19.10;99.90
43183;DHT22;28802;38.578;-0.066;2023-05-28T02:22:42;19.00;99.90
43183;DHT22;28802;38.578;-0.066;2023-05-28T02:25:08;18.80;99.90
43183;DHT22;28802;38.578;-0.066;2023-05-28T02:27:33;18.80;99.90
43183;DHT22;28802;38.578;-0.066;2023-05-28T02:30:01;18.80;99.90
43183;DHT22;28802;38.578;-0.066;2023-05-28T02:32:27;18.80;99.90
43183;DHT22;28802;38.578;-0.066;2023-05-28T02:34:53;18.80;99.90
43183;DHT22;28802;38.578;-0.066;2023-05-28T02:37:20;18.80;99.90
43183;DHT22;28802;38.578;-0.066;2023-05-28T02:39:50;18.70;99.90
43183;DHT22;28802;38.578;-0.066;2023-05-28T02:42:17;18.80;99.90
43183;DHT22;28802;38.578;-0.066;2023-05-28T02:44:43;18.70;99.90
43183;DHT22;28802;38.578;-0.066;2023-05-28T02:47:09;18.60;99.90
43183;DHT22;28802;38.578;-0.066;2023-05-28T02:49:36;18.60;99.90
43183;DHT22;28802;38.578;-0.066;2023-05-28T02:52:03;18.60;99.90
43183;DHT22;28802;38.578;-0.066;2023-05-28T02:54:35;18.70;99.90
43183;DHT22;28802;38.578;-0.066;2023-05-28T02:57:02;18.70;99.90
43183;DHT22;28802;38.578;-0.066;2023-05-28T02:59:27;18.80;99.90
43183;DHT22;28802;38.578;-0.066;2023-05-28T03:01:53;18.60;99.90
43183;DHT22;28802;38.578;-0.066;2023-05-28T03:04:20;18.40;99.90
43183;DHT22;28802;38.578;-0.066;2023-05-28T03:06:47;18.30;99.90
43183;DHT22;28802;38.578;-0.066;2023-05-28T03:09:13;18.20;99.90
43183;DHT22;28802;38.578;-0.066;2023-05-28T03:11:41;18.20;99.90
43183;DHT22;28802;38.578;-0.066;2023-05-28T03:14:07;18.20;99.90
43183;DHT22;28802;38.578;-0.066;2023-05-28T03:16:32;18.20;99.90
43183;DHT22;28802;38.578;-0.066;2023-05-28T03:19:02;18.10;99.90
43183;DHT22;28802;38.578;-0.066;2023-05-28T03:21:31;17.90;99.90
43183;DHT22;28802;38.578;-0.066;2023-05-28T03:23:57;18.00;99.90
43183;DHT22;28802;38.578;-0.066;2023-05-28T03:26:28;18.10;99.90
43183;DHT22;28802;38.578;-0.066;2023-05-28T03:28:55;18.10;99.90
43183;DHT22;28802;38.578;-0.066;2023-05-28T03:31:43;18.20;99.90
43183;DHT22;28802;38.578;-0.066;2023-05-28T03:34:10;18.30;99.90
43183;DHT22;28802;38.578;-0.066;2023-05-28T03:36:36;18.20;99.90
43183;DHT22;28802;38.578;-0.066;2023-05-28T03:39:02;18.10;99.90
43183;DHT22;28802;38.578;-0.066;2023-05-28T03:41:29;18.00;99.90
43183;DHT22;28802;38.578;-0.066;2023-05-28T03:43:56;18.00;99.90
43183;DHT22;28802;38.578;-0.066;2023-05-28T03:46:23;18.00;99.90
43183;DHT22;28802;38.578;-0.066;2023-05-28T03:48:49;18.00;99.90
43183;DHT22;28802;38.578;-0.066;2023-05-28T03:51:15;18.10;99.90
43183;DHT22;28802;38.578;-0.066;2023-05-28T03:53:41;18.20;99.90
43183;DHT22;28802;38.578;-0.066;2023-05-28T03:56:07;18.30;99.90
43183;DHT22;28802;38.578;-0.066;2023-05-28T03:58:33;18.50;99.90
43183;DHT22;28802;38.578;-0.066;2023-05-28T04:01:00;18.50;99.90
43183;DHT22;28802;38.578;-0.066;2023-05-28T04:03:26;18.50;99.90
43183;DHT22;28802;38.578;-0.066;2023-05-28T04:05:52;18.50;99.90
43183;DHT22;28802;38.578;-0.066;2023-05-28T04:08:20;18.50;99.90
43183;DHT22;28802;38.578;-0.066;2023-05-28T04:10:46;18.60;99.90
43183;DHT22;28802;38.578;-0.066;2023-05-28T04:13:12;18.50;99.90
43183;DHT22;28802;38.578;-0.066;2023-05-28T04:15:38;18.50;99.90
43183;DHT22;28802;38.578;-0.066;2023-05-28T04:18:04;18.50;99.90
43183;DHT22;28802;38.578;-0.066;2023-05-28T04:20:32;18.40;99.90
43183;DHT22;28802;38.578;-0.066;2023-05-28T04:23:01;18.40;99.90
43183;DHT22;28802;38.578;-0.066;2023-05-28T04:25:29;18.40;99.90
43183;DHT22;28802;38.578;-0.066;2023-05-28T04:27:57;18.30;99.90
43183;DHT22;28802;38.578;-0.066;2023-05-28T04:30:24;18.30;99.90
43183;DHT22;28802;38.578;-0.066;2023-05-28T04:32:50;18.30;99.90
43183;DHT22;28802;38.578;-0.066;2023-05-28T04:35:19;18.20;99.90
43183;DHT22;28802;38.578;-0.066;2023-05-28T04:37:47;18.30;99.90
43183;DHT22;28802;38.578;-0.066;2023-05-28T04:40:17;18.30;99.90
43183;DHT22;28802;38.578;-0.066;2023-05-28T04:42:43;18.40;99.90
43183;DHT22;28802;38.578;-0.066;2023-05-28T04:45:10;18.50;99.90
43183;DHT22;28802;38.578;-0.066;2023-05-28T04:47:37;18.60;99.90
43183;DHT22;28802;38.578;-0.066;2023-05-28T04:50:04;18.70;99.90
43183;DHT22;28802;38.578;-0.066;2023-05-28T04:52:31;18.70;99.90
43183;DHT22;28802;38.578;-0.066;2023-05-28T04:54:59;18.70;99.90
43183;DHT22;28802;38.578;-0.066;2023-05-28T04:57:25;18.50;99.90
43183;DHT22;28802;38.578;-0.066;2023-05-28T04:59:51;18.50;99.90
43183;DHT22;28802;38.578;-0.066;2023-05-28T05:02:17;18.50;99.90
43183;DHT22;28802;38.578;-0.066;2023-05-28T05:04:45;18.70;99.90
43183;DHT22;28802;38.578;-0.066;2023-05-28T05:07:14;18.60;99.90
43183;DHT22;28802;38.578;-0.066;2023-05-28T05:09:40;18.40;99.90
43183;DHT22;28802;38.578;-0.066;2023-05-28T05:12:07;18.40;99.90
43183;DHT22;28802;38.578;-0.066;2023-05-28T05:14:34;18.40;99.90
43183;DHT22;28802;38.578;-0.066;2023-05-28T05:17:02;18.10;99.90
43183;DHT22;28802;38.578;-0.066;2023-05-28T05:19:28;17.90;99.90
43183;DHT22;28802;38.578;-0.066;2023-05-28T05:21:54;17.90;99.90
43183;DHT22;28802;38.578;-0.066;2023-05-28T05:24:21;17.90;99.90
43183;DHT22;28802;38.578;-0.066;2023-05-28T05:26:47;18.00;99.90
43183;DHT22;28802;38.578;-0.066;2023-05-28T05:29:13;18.10;99.90
43183;DHT22;28802;38.578;-0.066;2023-05-28T05:31:39;18.20;99.90
43183;DHT22;28802;38.578;-0.066;2023-05-28T05:34:07;18.20;99.90
43183;DHT22;28802;38.578;-0.066;2023-05-28T05:37:12;18.20;99.90
43183;DHT22;28802;38.578;-0.066;2023-05-28T05:39:44;18.30;99.90
43183;DHT22;28802;38.578;-0.066;2023-05-28T05:42:29;18.30;99.90
43183;DHT22;28802;38.578;-0.066;2023-05-28T05:44:55;18.30;99.90
43183;DHT22;28802;38.578;-0.066;2023-05-28T05:47:21;18.30;99.90
43183;DHT22;28802;38.578;-0.066;2023-05-28T05:49:48;18.20;99.90
43183;DHT22;28802;38.578;-0.066;2023-05-28T05:52:14;18.20;99.90
43183;DHT22;28802;38.578;-0.066;2023-05-28T05:54:41;18.30;99.90
43183;DHT22;28802;38.578;-0.066;2023-05-28T05:57:08;18.30;99.90
43183;DHT22;28802;38.578;-0.066;2023-05-28T05:59:34;18.30;99.90
43183;DHT22;28802;38.578;-0.066;2023-05-28T06:02:00;18.30;99.90
43183;DHT22;28802;38.578;-0.066;2023-05-28T06:04:27;18.20;99.90
43183;DHT22;28802;38.578;-0.066;2023-05-28T06:07:06;18.00;99.90
43183;DHT22;28802;38.578;-0.066;2023-05-28T06:09:48;18.00;99.90
43183;DHT22;28802;38.578;-0.066;2023-05-28T06:12:22;18.00;99.90
43183;DHT22;28802;38.578;-0.066;2023-05-28T06:14:48;17.90;99.90
43183;DHT22;28802;38.578;-0.066;2023-05-28T06:17:16;18.00;99.90
43183;DHT22;28802;38.578;-0.066;2023-05-28T06:19:42;18.10;99.90
43183;DHT22;28802;38.578;-0.066;2023-05-28T06:22:08;18.20;99.90
43183;DHT22;28802;38.578;-0.066;2023-05-28T06:24:36;18.20;99.90
43183;DHT22;28802;38.578;-0.066;2023-05-28T06:27:04;18.20;99.90
43183;DHT22;28802;38.578;-0.066;2023-05-28T06:29:30;18.10;99.90
43183;DHT22;28802;38.578;-0.066;2023-05-28T06:31:57;18.00;99.90
43183;DHT22;28802;38.578;-0.066;2023-05-28T06:34:23;18.00;99.90
43183;DHT22;28802;38.578;-0.066;2023-05-28T06:36:49;17.90;99.90
43183;DHT22;28802;38.578;-0.066;2023-05-28T06:39:16;17.90;99.90
43183;DHT22;28802;38.578;-0.066;2023-05-28T06:41:46;17.80;99.90
43183;DHT22;28802;38.578;-0.066;2023-05-28T06:44:19;18.00;99.90
43183;DHT22;28802;38.578;-0.066;2023-05-28T06:46:53;18.20;99.90
43183;DHT22;28802;38.578;-0.066;2023-05-28T06:49:20;18.20;99.90
43183;DHT22;28802;38.578;-0.066;2023-05-28T06:51:46;18.30;99.90
43183;DHT22;28802;38.578;-0.066;2023-05-28T06:54:12;18.40;99.90
43183;DHT22;28802;38.578;-0.066;2023-05-28T06:56:38;18.30;99.90
43183;DHT22;28802;38.578;-0.066;2023-05-28T06:59:23;18.20;99.90
43183;DHT22;28802;38.578;-0.066;2023-05-28T07:02:07;18.20;99.90
43183;DHT22;28802;38.578;-0.066;2023-05-28T07:04:53;18.20;99.90
43183;DHT22;28802;38.578;-0.066;2023-05-28T07:07:27;18.20;99.90
43183;DHT22;28802;38.578;-0.066;2023-05-28T07:09:53;18.00;99.90
43183;DHT22;28802;38.578;-0.066;2023-05-28T07:12:19;17.90;99.90
43183;DHT22;28802;38.578;-0.066;2023-05-28T07:14:51;17.80;99.90
43183;DHT22;28802;38.578;-0.066;2023-05-28T07:17:20;17.70;99.90
43183;DHT22;28802;38.578;-0.066;2023-05-28T07:19:47;17.70;99.90
43183;DHT22;28802;38.578;-0.066;2023-05-28T07:22:17;17.70;99.90
43183;DHT22;28802;38.578;-0.066;2023-05-28T07:24:44;17.70;99.90
43183;DHT22;28802;38.578;-0.066;2023-05-28T07:27:10;17.70;99.90
43183;DHT22;28802;38.578;-0.066;2023-05-28T07:29:36;17.80;99.90
43183;DHT22;28802;38.578;-0.066;2023-05-28T07:32:02;17.80;99.90
43183;DHT22;28802;38.578;-0.066;2023-05-28T07:34:32;17.80;99.90
43183;DHT22;28802;38.578;-0.066;2023-05-28T07:36:58;17.80;99.90
43183;DHT22;28802;38.578;-0.066;2023-05-28T07:39:24;17.80;99.90
43183;DHT22;28802;38.578;-0.066;2023-05-28T07:41:50;17.80;99.90
43183;DHT22;28802;38.578;-0.066;2023-05-28T07:44:24;17.90;99.90
43183;DHT22;28802;38.578;-0.066;2023-05-28T07:46:52;17.70;99.90
43183;DHT22;28802;38.578;-0.066;2023-05-28T07:49:44;17.40;99.90
43183;DHT22;28802;38.578;-0.066;2023-05-28T07:52:10;17.40;99.90
43183;DHT22;28802;38.578;-0.066;2023-05-28T07:54:39;17.50;99.90
43183;DHT22;28802;38.578;-0.066;2023-05-28T07:57:06;17.60;99.90
43183;DHT22;28802;38.578;-0.066;2023-05-28T07:59:37;17.80;99.90
43183;DHT22;28802;38.578;-0.066;2023-05-28T08:02:04;17.90;99.90
43183;DHT22;28802;38.578;-0.066;2023-05-28T08:04:34;18.10;99.90
43183;DHT22;28802;38.578;-0.066;2023-05-28T08:07:00;18.20;99.90
43183;DHT22;28802;38.578;-0.066;2023-05-28T08:09:28;18.10;99.90
43183;DHT22;28802;38.578;-0.066;2023-05-28T08:11:56;18.30;99.90
43183;DHT22;28802;38.578;-0.066;2023-05-28T08:14:25;18.50;99.90
43183;DHT22;28802;38.578;-0.066;2023-05-28T08:16:54;18.70;99.90
43183;DHT22;28802;38.578;-0.066;2023-05-28T08:19:43;18.70;99.90
43183;DHT22;28802;38.578;-0.066;2023-05-28T08:22:27;18.70;99.90
43183;DHT22;28802;38.578;-0.066;2023-05-28T08:24:53;18.70;99.90
43183;DHT22;28802;38.578;-0.066;2023-05-28T08:27:19;18.30;99.90
43183;DHT22;28802;38.578;-0.066;2023-05-28T08:29:46;18.40;99.90
43183;DHT22;28802;38.578;-0.066;2023-05-28T08:32:12;18.80;99.90
43183;DHT22;28802;38.578;-0.066;2023-05-28T08:34:40;18.90;99.90
43183;DHT22;28802;38.578;-0.066;2023-05-28T08:37:06;19.00;99.90
43183;DHT22;28802;38.578;-0.066;2023-05-28T08:39:43;19.00;99.90
43183;DHT22;28802;38.578;-0.066;2023-05-28T08:42:10;19.10;99.90
43183;DHT22;28802;38.578;-0.066;2023-05-28T08:44:36;19.60;99.90
43183;DHT22;28802;38.578;-0.066;2023-05-28T08:47:04;20.00;99.90
43183;DHT22;28802;38.578;-0.066;2023-05-28T08:49:52;21.30;99.90
43183;DHT22;28802;38.578;-0.066;2023-05-28T08:52:30;22.60;99.90
43183;DHT22;28802;38.578;-0.066;2023-05-28T08:54:58;22.20;99.90
43183;DHT22;28802;38.578;-0.066;2023-05-28T08:57:26;21.90;99.90
43183;DHT22;28802;38.578;-0.066;2023-05-28T08:59:59;21.70;99.90
43183;DHT22;28802;38.578;-0.066;2023-05-28T09:02:27;22.90;99.90
43183;DHT22;28802;38.578;-0.066;2023-05-28T09:04:54;23.90;99.90
43183;DHT22;28802;38.578;-0.066;2023-05-28T09:07:22;22.70;99.90
43183;DHT22;28802;38.578;-0.066;2023-05-28T09:09:56;22.00;99.90
43183;DHT22;28802;38.578;-0.066;2023-05-28T09:12:26;21.30;99.90
43183;DHT22;28802;38.578;-0.066;2023-05-28T09:15:00;20.70;99.90
43183;DHT22;28802;38.578;-0.066;2023-05-28T09:17:37;20.60;99.90
43183;DHT22;28802;38.578;-0.066;2023-05-28T09:20:13;20.90;99.90
43183;DHT22;28802;38.578;-0.066;2023-05-28T09:22:41;21.00;99.90
43183;DHT22;28802;38.578;-0.066;2023-05-28T09:25:21;21.10;99.90
43183;DHT22;28802;38.578;-0.066;2023-05-28T09:27:56;21.10;99.90
43183;DHT22;28802;38.578;-0.066;2023-05-28T09:30:24;21.30;99.90
43183;DHT22;28802;38.578;-0.066;2023-05-28T09:33:00;20.70;99.90
43183;DHT22;28802;38.578;-0.066;2023-05-28T09:35:26;20.20;99.90
43183;DHT22;28802;38.578;-0.066;2023-05-28T09:38:03;19.90;99.90
43183;DHT22;28802;38.578;-0.066;2023-05-28T09:40:29;19.80;99.90
43183;DHT22;28802;38.578;-0.066;2023-05-28T09:42:55;19.90;99.90
43183;DHT22;28802;38.578;-0.066;2023-05-28T09:45:23;20.10;99.90
43183;DHT22;28802;38.578;-0.066;2023-05-28T09:47:50;20.20;99.90
43183;DHT22;28802;38.578;-0.066;2023-05-28T09:50:17;20.00;99.90
43183;DHT22;28802;38.578;-0.066;2023-05-28T09:52:44;20.10;99.90
43183;DHT22;28802;38.578;-0.066;2023-05-28T09:55:15;20.40;99.90
43183;DHT22;28802;38.578;-0.066;2023-05-28T09:58:02;20.40;99.90
43183;DHT22;28802;38.578;-0.066;2023-05-28T10:00:41;20.40;99.90
43183;DHT22;28802;38.578;-0.066;2023-05-28T10:03:43;20.80;99.90
43183;DHT22;28802;38.578;-0.066;2023-05-28T10:06:27;20.80;99.90
43183;DHT22;28802;38.578;-0.066;2023-05-28T10:08:56;20.80;99.90
43183;DHT22;28802;38.578;-0.066;2023-05-28T10:11:27;20.60;99.90
43183;DHT22;28802;38.578;-0.066;2023-05-28T10:13:56;20.60;99.90
43183;DHT22;28802;38.578;-0.066;2023-05-28T10:16:23;20.50;99.90
43183;DHT22;28802;38.578;-0.066;2023-05-28T10:18:51;20.60;99.90
43183;DHT22;28802;38.578;-0.066;2023-05-28T10:21:19;20.90;99.90
43183;DHT22;28802;38.578;-0.066;2023-05-28T10:23:46;21.00;99.90
43183;DHT22;28802;38.578;-0.066;2023-05-28T10:26:14;21.00;99.90
43183;DHT22;28802;38.578;-0.066;2023-05-28T10:28:40;21.00;99.90
43183;DHT22;28802;38.578;-0.066;2023-05-28T10:31:08;20.80;99.90
43183;DHT22;28802;38.578;-0.066;2023-05-28T10:33:42;20.70;99.90
43183;DHT22;28802;38.578;-0.066;2023-05-28T10:36:10;20.60;99.90
43183;DHT22;28802;38.578;-0.066;2023-05-28T10:38:57;20.50;99.90
43183;DHT22;28802;38.578;-0.066;2023-05-28T10:41:25;20.40;99.90
43183;DHT22;28802;38.578;-0.066;2023-05-28T10:43:54;20.20;99.90
43183;DHT22;28802;38.578;-0.066;2023-05-28T10:49:14;20.20;99.90
43183;DHT22;28802;38.578;-0.066;2023-05-28T10:51:51;20.10;99.90
43183;DHT22;28802;38.578;-0.066;2023-05-28T10:57:20;20.40;99.90
43183;DHT22;28802;38.578;-0.066;2023-05-28T11:02:26;20.60;99.90
43183;DHT22;28802;38.578;-0.066;2023-05-28T11:04:54;20.60;99.90
43183;DHT22;28802;38.578;-0.066;2023-05-28T11:07:29;20.70;99.90
43183;DHT22;28802;38.578;-0.066;2023-05-28T11:09:57;20.60;99.90
43183;DHT22;28802;38.578;-0.066;2023-05-28T11:12:26;20.70;99.90
43183;DHT22;28802;38.578;-0.066;2023-05-28T11:14:53;20.70;99.90
43183;DHT22;28802;38.578;-0.066;2023-05-28T11:17:19;20.70;99.90
43183;DHT22;28802;38.578;-0.066;2023-05-28T11:19:47;21.00;99.90
43183;DHT22;28802;38.578;-0.066;2023-05-28T11:22:15;21.10;99.90
43183;DHT22;28802;38.578;-0.066;2023-05-28T11:24:56;21.20;99.90
43183;DHT22;28802;38.578;-0.066;2023-05-28T11:27:28;21.10;99.90
43183;DHT22;28802;38.578;-0.066;2023-05-28T11:29:55;20.90;99.90
43183;DHT22;28802;38.578;-0.066;2023-05-28T11:32:23;20.90;99.90
43183;DHT22;28802;38.578;-0.066;2023-05-28T11:34:50;21.30;99.90
43183;DHT22;28802;38.578;-0.066;2023-05-28T11:37:26;21.30;99.90
43183;DHT22;28802;38.578;-0.066;2023-05-28T11:39:53;21.30;99.90
43183;DHT22;28802;38.578;-0.066;2023-05-28T11:42:20;21.50;99.90
43183;DHT22;28802;38.578;-0.066;2023-05-28T11:44:47;21.70;99.90
43183;DHT22;28802;38.578;-0.066;2023-05-28T11:47:14;22.00;99.90
43183;DHT22;28802;38.578;-0.066;2023-05-28T11:49:41;22.10;99.90
43183;DHT22;28802;38.578;-0.066;2023-05-28T11:52:11;21.50;99.90
43183;DHT22;28802;38.578;-0.066;2023-05-28T11:54:39;21.10;99.90
43183;DHT22;28802;38.578;-0.066;2023-05-28T11:57:06;21.10;99.90
43183;DHT22;28802;38.578;-0.066;2023-05-28T11:59:32;21.00;99.90
43183;DHT22;28802;38.578;-0.066;2023-05-28T12:04:37;21.30;99.90
43183;DHT22;28802;38.578;-0.066;2023-05-28T12:07:03;21.60;99.90
43183;DHT22;28802;38.578;-0.066;2023-05-28T12:09:29;22.10;99.90
43183;DHT22;28802;38.578;-0.066;2023-05-28T12:12:21;22.80;99.90
43183;DHT22;28802;38.578;-0.066;2023-05-28T12:14:52;23.30;99.90
43183;DHT22;28802;38.578;-0.066;2023-05-28T12:17:23;23.30;99.90
43183;DHT22;28802;38.578;-0.066;2023-05-28T12:19:50;22.60;99.90
43183;DHT22;28802;38.578;-0.066;2023-05-28T12:22:16;21.90;99.90
43183;DHT22;28802;38.578;-0.066;2023-05-28T12:24:51;22.20;99.90
43183;DHT22;28802;38.578;-0.066;2023-05-28T12:27:20;22.80;99.90
43183;DHT22;28802;38.578;-0.066;2023-05-28T12:29:46;22.90;99.90
43183;DHT22;28802;38.578;-0.066;2023-05-28T12:32:12;23.30;99.90
43183;DHT22;28802;38.578;-0.066;2023-05-28T12:34:38;23.20;99.90
43183;DHT22;28802;38.578;-0.066;2023-05-28T12:37:04;22.90;99.90
43183;DHT22;28802;38.578;-0.066;2023-05-28T12:39:31;22.60;99.90
43183;DHT22;28802;38.578;-0.066;2023-05-28T12:41:57;21.90;99.90
43183;DHT22;28802;38.578;-0.066;2023-05-28T12:44:23;22.00;99.90
43183;DHT22;28802;38.578;-0.066;2023-05-28T12:46:48;21.70;99.90
43183;DHT22;28802;38.578;-0.066;2023-05-28T12:49:16;21.60;99.90
43183;DHT22;28802;38.578;-0.066;2023-05-28T12:51:42;21.50;99.90
43183;DHT22;28802;38.578;-0.066;2023-05-28T12:54:08;21.50;99.90
43183;DHT22;28802;38.578;-0.066;2023-05-28T12:56:34;21.60;99.90
43183;DHT22;28802;38.578;-0.066;2023-05-28T12:59:00;21.60;99.90
43183;DHT22;28802;38.578;-0.066;2023-05-28T13:01:26;21.60;99.90
43183;DHT22;28802;38.578;-0.066;2023-05-28T13:03:52;21.60;99.90
43183;DHT22;28802;38.578;-0.066;2023-05-28T13:06:18;21.70;99.90
43183;DHT22;28802;38.578;-0.066;2023-05-28T13:08:44;21.80;99.90
43183;DHT22;28802;38.578;-0.066;2023-05-28T13:11:10;21.90;99.90
43183;DHT22;28802;38.578;-0.066;2023-05-28T13:13:37;21.90;99.90
43183;DHT22;28802;38.578;-0.066;2023-05-28T13:16:04;21.80;99.90
43183;DHT22;28802;38.578;-0.066;2023-05-28T13:18:30;21.80;99.90
43183;DHT22;28802;38.578;-0.066;2023-05-28T13:20:56;21.80;99.90
43183;DHT22;28802;38.578;-0.066;2023-05-28T13:23:22;21.70;99.90
43183;DHT22;28802;38.578;-0.066;2023-05-28T13:25:48;21.60;99.90
43183;DHT22;28802;38.578;-0.066;2023-05-28T13:28:14;21.70;99.90
43183;DHT22;28802;38.578;-0.066;2023-05-28T13:30:40;21.60;99.90
43183;DHT22;28802;38.578;-0.066;2023-05-28T13:33:06;21.70;99.90
43183;DHT22;28802;38.578;-0.066;2023-05-28T13:35:32;21.80;99.90
43183;DHT22;28802;38.578;-0.066;2023-05-28T13:37:57;21.70;99.90
43183;DHT22;28802;38.578;-0.066;2023-05-28T13:40:24;21.70;99.90
43183;DHT22;28802;38.578;-0.066;2023-05-28T13:42:50;21.70;99.90
43183;DHT22;28802;38.578;-0.066;2023-05-28T13:45:17;21.70;99.90
43183;DHT22;28802;38.578;-0.066;2023-05-28T13:47:43;21.50;99.90
43183;DHT22;28802;38.578;-0.066;2023-05-28T13:50:09;21.60;99.90
43183;DHT22;28802;38.578;-0.066;2023-05-28T13:52:35;21.60;99.90
43183;DHT22;28802;38.578;-0.066;2023-05-28T13:55:01;21.50;99.90
43183;DHT22;28802;38.578;-0.066;2023-05-28T13:57:27;21.40;99.90
43183;DHT22;28802;38.578;-0.066;2023-05-28T13:59:53;21.40;99.90
43183;DHT22;28802;38.578;-0.066;2023-05-28T14:02:19;21.30;99.90
43183;DHT22;28802;38.578;-0.066;2023-05-28T14:04:45;21.20;99.90
43183;DHT22;28802;38.578;-0.066;2023-05-28T14:07:12;21.10;99.90
43183;DHT22;28802;38.578;-0.066;2023-05-28T14:09:38;20.90;99.90
43183;DHT22;28802;38.578;-0.066;2023-05-28T14:12:05;20.80;99.90
43183;DHT22;28802;38.578;-0.066;2023-05-28T14:14:31;20.90;99.90
43183;DHT22;28802;38.578;-0.066;2023-05-28T14:16:57;20.80;99.90
43183;DHT22;28802;38.578;-0.066;2023-05-28T14:19:23;20.80;99.90
43183;DHT22;28802;38.578;-0.066;2023-05-28T14:21:49;20.70;99.90
43183;DHT22;28802;38.578;-0.066;2023-05-28T14:24:15;20.60;99.90
43183;DHT22;28802;38.578;-0.066;2023-05-28T14:26:41;20.60;99.90
43183;DHT22;28802;38.578;-0.066;2023-05-28T14:29:07;20.60;99.90
43183;DHT22;28802;38.578;-0.066;2023-05-28T14:31:33;20.70;99.90
43183;DHT22;28802;38.578;-0.066;2023-05-28T14:33:59;20.60;99.90
43183;DHT22;28802;38.578;-0.066;2023-05-28T14:36:25;20.60;99.90
43183;DHT22;28802;38.578;-0.066;2023-05-28T14:38:51;20.60;99.90
43183;DHT22;28802;38.578;-0.066;2023-05-28T14:41:17;20.60;99.90
43183;DHT22;28802;38.578;-0.066;2023-05-28T14:43:44;20.70;99.90
43183;DHT22;28802;38.578;-0.066;2023-05-28T14:46:10;20.70;99.90
43183;DHT22;28802;38.578;-0.066;2023-05-28T14:48:36;20.80;99.90
43183;DHT22;28802;38.578;-0.066;2023-05-28T14:51:03;20.80;99.90
43183;DHT22;28802;38.578;-0.066;2023-05-28T14:53:32;20.80;99.90
43183;DHT22;28802;38.578;-0.066;2023-05-28T14:55:58;20.70;99.90
43183;DHT22;28802;38.578;-0.066;2023-05-28T14:58:24;20.70;99.90
43183;DHT22;28802;38.578;-0.066;2023-05-28T15:00:51;20.80;99.90
43183;DHT22;28802;38.578;-0.066;2023-05-28T15:03:17;20.80;99.90
43183;DHT22;28802;38.578;-0.066;2023-05-28T15:05:46;20.70;99.90
43183;DHT22;28802;38.578;-0.066;2023-05-28T15:08:12;20.80;99.90
43183;DHT22;28802;38.578;-0.066;2023-05-28T15:10:41;20.70;99.90
43183;DHT22;28802;38.578;-0.066;2023-05-28T15:13:09;20.70;99.90
43183;DHT22;28802;38.578;-0.066;2023-05-28T15:15:35;20.70;99.90
43183;DHT22;28802;38.578;-0.066;2023-05-28T15:18:02;20.70;99.90
43183;DHT22;28802;38.578;-0.066;2023-05-28T15:20:28;20.70;99.90
43183;DHT22;28802;38.578;-0.066;2023-05-28T15:22:54;20.70;99.90
43183;DHT22;28802;38.578;-0.066;2023-05-28T15:25:20;20.60;99.90
43183;DHT22;28802;38.578;-0.066;2023-05-28T15:27:48;20.50;99.90
43183;DHT22;28802;38.578;-0.066;2023-05-28T15:30:14;20.40;99.90
43183;DHT22;28802;38.578;-0.066;2023-05-28T15:32:41;20.40;99.90
43183;DHT22;28802;38.578;-0.066;2023-05-28T15:35:08;20.40;99.90